Time;durP1;ratioP1;P1;durP2;ratioP2;P2;SDS_P1;SDS_P2;PMS_P1;PMS_P2;Temp;Humidity;BMP_temperature;BMP_pressure;BME280_temperature;BME280_humidity;BME280_pressure;Samples;Min_cycle;Max_cycle;Signal;HPM_P1;HPM_P2
2021/05/26 00:01:23;;;;;;;3.53;1.90;;;11.70;90.00;;;;;;5073052;28;20438;-67
2021/05/26 00:03:51;;;;;;;3.53;2.07;;;11.60;89.70;;;;;;5072607;28;20436;-67
2021/05/26 00:06:18;;;;;;;4.37;1.87;;;11.70;89.80;;;;;;5072963;28;20469;-68
2021/05/26 00:08:45;;;;;;;7.60;2.47;;;11.70;89.70;;;;;;5073078;28;20498;-68
2021/05/26 00:11:14;;;;;;;4.97;2.43;;;11.70;89.50;;;;;;5072975;28;20452;-68
2021/05/26 00:13:42;;;;;;;4.67;2.63;;;11.60;89.70;;;;;;5072931;28;20449;-67
2021/05/26 00:16:09;;;;;;;8.80;2.33;;;11.60;90.00;;;;;;5072676;28;20510;-68
2021/05/26 00:18:35;;;;;;;3.30;2.00;;;11.60;90.10;;;;;;5073160;28;20452;-68
2021/05/26 00:21:03;;;;;;;3.57;2.27;;;11.60;90.20;;;;;;5072814;28;20444;-68
2021/05/26 00:23:29;;;;;;;6.63;2.40;;;11.60;90.10;;;;;;5075143;28;20448;-68
2021/05/26 00:25:55;;;;;;;6.00;2.50;;;11.60;90.30;;;;;;5076365;28;20484;-68
2021/05/26 00:28:23;;;;;;;8.10;3.33;;;11.60;90.20;;;;;;5076124;28;20796;-68
2021/05/26 00:30:51;;;;;;;10.23;3.23;;;11.60;90.20;;;;;;5076052;28;20935;-68
2021/05/26 00:33:18;;;;;;;6.63;2.90;;;11.60;90.10;;;;;;5076095;28;20935;-68
2021/05/26 00:35:45;;;;;;;6.00;3.07;;;11.70;90.20;;;;;;5076292;28;20475;-68
2021/05/26 00:38:12;;;;;;;7.50;3.63;;;11.60;90.10;;;;;;5075984;28;20444;-68
2021/05/26 00:40:38;;;;;;;7.60;3.40;;;11.60;90.10;;;;;;5076214;28;20464;-68
2021/05/26 00:43:05;;;;;;;5.90;3.50;;;11.60;90.30;;;;;;5076203;28;20445;-68
2021/05/26 00:45:32;;;;;;;5.40;3.07;;;11.50;90.30;;;;;;5075972;28;20484;-68
2021/05/26 00:47:59;;;;;;;4.60;3.03;;;11.50;90.30;;;;;;5076054;28;20513;-68
2021/05/26 00:50:27;;;;;;;9.37;3.27;;;11.50;90.30;;;;;;5076059;28;20448;-67
2021/05/26 00:52:53;;;;;;;9.00;3.40;;;11.50;90.30;;;;;;5076000;28;20450;-67
2021/05/26 00:55:21;;;;;;;4.93;3.30;;;11.50;90.40;;;;;;5075906;28;20464;-68
2021/05/26 00:57:49;;;;;;;8.10;3.03;;;11.50;90.40;;;;;;5075904;28;20543;-68
2021/05/26 01:00:18;;;;;;;7.80;3.90;;;11.50;90.30;;;;;;5075498;28;20943;-68
2021/05/26 01:02:46;;;;;;;6.67;3.20;;;11.50;90.30;;;;;;5076286;28;20801;-68
2021/05/26 01:05:14;;;;;;;7.40;3.40;;;11.50;90.70;;;;;;5075632;28;20492;-68
2021/05/26 01:07:40;;;;;;;5.70;3.20;;;11.50;90.30;;;;;;5075710;28;20451;-68
2021/05/26 01:10:08;;;;;;;9.40;2.77;;;11.50;90.30;;;;;;5075700;28;20444;-68
2021/05/26 01:12:35;;;;;;;5.77;2.90;;;11.50;90.30;;;;;;5075622;28;20440;-68
2021/05/26 01:15:01;;;;;;;5.37;2.67;;;11.50;90.20;;;;;;5075752;28;20796;-68
2021/05/26 01:17:27;;;;;;;12.77;3.30;;;11.50;90.00;;;;;;5075131;28;20487;-67
2021/05/26 01:19:54;;;;;;;8.70;3.57;;;11.40;89.80;;;;;;5075458;28;20441;-67
2021/05/26 01:22:21;;;;;;;7.53;3.03;;;11.40;90.00;;;;;;5075430;28;20502;-67
2021/05/26 01:24:48;;;;;;;8.23;3.20;;;11.30;89.90;;;;;;5075026;28;21020;-67
2021/05/26 01:27:14;;;;;;;7.03;2.70;;;11.20;90.10;;;;;;5075294;28;20473;-68
2021/05/26 01:29:41;;;;;;;13.17;3.83;;;11.20;90.30;;;;;;5074969;28;20892;-67
2021/05/26 01:32:08;;;;;;;13.13;3.50;;;11.20;90.50;;;;;;5075273;28;20809;-67
2021/05/26 01:34:34;;;;;;;9.40;3.27;;;11.10;90.60;;;;;;5074923;28;20814;-67
2021/05/26 01:37:00;;;;;;;13.37;3.73;;;11.10;90.70;;;;;;5075088;28;20525;-68
2021/05/26 01:39:27;;;;;;;9.90;3.23;;;11.10;90.60;;;;;;5075113;28;20452;-68
2021/05/26 01:41:55;;;;;;;12.60;3.50;;;11.10;90.60;;;;;;5075099;28;20911;-67
2021/05/26 01:44:24;;;;;;;6.13;3.13;;;11.10;90.70;;;;;;5074636;28;21088;-67
2021/05/26 01:46:50;;;;;;;7.67;3.43;;;11.10;90.70;;;;;;5074952;28;20469;-67
2021/05/26 01:49:17;;;;;;;10.83;3.70;;;11.00;90.70;;;;;;5075223;28;20448;-68
2021/05/26 01:51:43;;;;;;;11.30;3.00;;;11.10;90.80;;;;;;5074903;28;20443;-68
2021/05/26 01:54:09;;;;;;;10.83;3.83;;;11.00;91.20;;;;;;5074871;28;20444;-68
2021/05/26 01:56:37;;;;;;;10.40;3.70;;;11.00;90.90;;;;;;5074697;28;20518;-67
2021/05/26 01:59:04;;;;;;;8.23;3.10;;;11.10;90.90;;;;;;5074463;28;20452;-67
2021/05/26 02:01:30;;;;;;;8.47;3.60;;;11.10;90.90;;;;;;5074386;28;20974;-67
2021/05/26 02:03:57;;;;;;;9.20;3.23;;;11.10;90.80;;;;;;5074378;28;20946;-67
2021/05/26 02:06:25;;;;;;;10.33;4.27;;;11.00;90.80;;;;;;5074533;28;20482;-68
2021/05/26 02:08:53;;;;;;;9.30;2.90;;;11.00;90.90;;;;;;5074583;28;20448;-67
2021/05/26 02:14:07;;;;;;;6.93;2.70;;;11.00;91.10;;;;;;5074479;28;20897;-67
2021/05/26 02:16:33;;;;;;;12.23;3.50;;;10.90;91.40;;;;;;5074029;28;20469;-68
2021/05/26 02:19:00;;;;;;;7.97;3.00;;;10.90;91.60;;;;;;5074328;28;20441;-68
2021/05/26 02:21:26;;;;;;;7.97;2.77;;;10.90;91.70;;;;;;5075277;28;20791;-68
2021/05/26 02:23:53;;;;;;;8.50;3.60;;;10.90;91.90;;;;;;5074238;28;20452;-68
2021/05/26 02:26:19;;;;;;;7.93;3.10;;;10.90;91.90;;;;;;5073746;28;20998;-68
2021/05/26 02:28:45;;;;;;;4.63;2.93;;;11.00;92.10;;;;;;5074080;28;20455;-68
2021/05/26 02:31:12;;;;;;;9.03;3.00;;;10.90;91.90;;;;;;5074165;28;20562;-68
2021/05/26 02:33:39;;;;;;;6.37;3.40;;;10.90;91.90;;;;;;5073994;28;20445;-68
2021/05/26 02:36:06;;;;;;;10.67;2.90;;;10.90;92.00;;;;;;5073883;28;20457;-68
2021/05/26 02:38:33;;;;;;;6.60;2.70;;;11.00;92.00;;;;;;5074137;28;20443;-68
2021/05/26 02:40:59;;;;;;;7.63;3.17;;;11.00;92.00;;;;;;5073932;28;20524;-68
2021/05/26 02:43:25;;;;;;;5.17;2.47;;;11.00;91.90;;;;;;5073969;28;20498;-68
2021/05/26 02:45:52;;;;;;;7.40;2.57;;;10.90;91.70;;;;;;5073057;28;20547;-68
2021/05/26 02:48:19;;;;;;;6.80;3.33;;;10.80;91.70;;;;;;5073858;28;20428;-68
2021/05/26 02:50:45;;;;;;;10.50;2.97;;;10.80;91.50;;;;;;5073438;28;20938;-68
2021/05/26 02:53:12;;;;;;;5.33;2.17;;;10.80;91.60;;;;;;5073453;28;20448;-68
2021/05/26 02:55:38;;;;;;;5.90;2.07;;;10.80;91.70;;;;;;5073687;28;20462;-68
2021/05/26 02:58:04;;;;;;;5.33;2.60;;;10.80;91.80;;;;;;5073374;28;20939;-68
2021/05/26 03:00:31;;;;;;;9.50;2.63;;;10.80;91.50;;;;;;5073671;28;20453;-68
2021/05/26 03:02:57;;;;;;;4.97;2.53;;;10.80;91.60;;;;;;5073643;28;20486;-68
2021/05/26 03:05:25;;;;;;;5.37;2.10;;;10.80;91.80;;;;;;5073527;28;20483;-69
2021/05/26 03:07:51;;;;;;;9.17;2.90;;;10.80;91.80;;;;;;5073244;28;20950;-68
2021/05/26 03:10:19;;;;;;;4.27;2.00;;;10.80;91.50;;;;;;5073605;28;20472;-68
2021/05/26 03:12:46;;;;;;;5.30;2.10;;;10.80;91.50;;;;;;5073549;28;20449;-68
2021/05/26 03:15:15;;;;;;;5.77;2.37;;;10.80;91.70;;;;;;5073224;28;20451;-68
2021/05/26 03:17:42;;;;;;;5.80;3.00;;;10.70;91.50;;;;;;5073507;28;20799;-68
2021/05/26 03:20:13;;;;;;;5.77;2.20;;;10.80;91.70;;;;;;5073464;28;20543;-68
2021/05/26 03:22:41;;;;;;;6.83;2.50;;;10.70;91.70;;;;;;5073462;28;20429;-68
2021/05/26 03:25:10;;;;;;;7.87;2.53;;;10.70;91.70;;;;;;5073275;28;20488;-69
2021/05/26 03:27:37;;;;;;;5.77;2.40;;;10.80;91.70;;;;;;5073476;28;20475;-68
2021/05/26 03:30:06;;;;;;;5.60;2.13;;;10.80;91.80;;;;;;5073388;28;20455;-68
2021/05/26 03:32:32;;;;;;;3.73;1.70;;;10.80;91.70;;;;;;5073022;28;20452;-68
2021/05/26 03:34:58;;;;;;;5.27;2.40;;;10.90;91.70;;;;;;5073314;28;20451;-68
2021/05/26 03:37:25;;;;;;;3.93;2.40;;;10.90;91.60;;;;;;5073143;28;20461;-68
2021/05/26 03:39:52;;;;;;;5.40;1.97;;;10.90;91.60;;;;;;5073159;28;20448;-68
2021/05/26 03:42:18;;;;;;;7.80;2.30;;;11.00;91.60;;;;;;5072962;28;20432;-68
2021/05/26 03:44:44;;;;;;;5.03;2.20;;;11.00;91.50;;;;;;5073128;28;20529;-68
2021/05/26 03:47:10;;;;;;;3.20;1.80;;;11.00;91.50;;;;;;5072843;28;20496;-68
2021/05/26 03:49:37;;;;;;;6.53;2.20;;;11.10;91.50;;;;;;5073182;28;20448;-68
2021/05/26 03:52:03;;;;;;;4.53;2.03;;;11.10;91.50;;;;;;5073193;28;20456;-68
2021/05/26 03:54:29;;;;;;;6.50;3.43;;;11.20;91.30;;;;;;5073044;28;20449;-68
2021/05/26 03:56:56;;;;;;;3.23;1.90;;;11.20;91.10;;;;;;5074408;28;20837;-68
2021/05/26 03:59:22;;;;;;;6.80;2.47;;;11.30;91.20;;;;;;5076783;28;20942;-68
2021/05/26 04:01:49;;;;;;;4.50;1.90;;;11.30;91.00;;;;;;5077017;28;20448;-68
2021/05/26 04:04:15;;;;;;;5.00;2.10;;;11.30;91.20;;;;;;5076919;28;20444;-68
2021/05/26 04:06:41;;;;;;;4.87;2.67;;;11.30;91.10;;;;;;5076525;28;20994;-68
2021/05/26 04:09:08;;;;;;;4.30;1.97;;;11.30;90.90;;;;;;5076527;28;20935;-67
2021/05/26 04:11:34;;;;;;;5.27;2.20;;;11.20;91.10;;;;;;5077295;28;20930;-68
2021/05/26 04:14:01;;;;;;;2.53;2.23;;;11.20;91.20;;;;;;5076694;28;20445;-68
2021/05/26 04:16:27;;;;;;;2.97;1.90;;;11.30;91.30;;;;;;5076228;28;20476;-68
2021/05/26 04:18:53;;;;;;;2.63;2.07;;;11.30;91.30;;;;;;5076392;28;20569;-68
2021/05/26 04:21:20;;;;;;;4.00;1.90;;;11.30;91.20;;;;;;5076602;28;20506;-67
2021/05/26 04:23:46;;;;;;;5.20;2.47;;;11.30;91.10;;;;;;5076572;28;20448;-68
2021/05/26 04:26:12;;;;;;;2.90;1.57;;;11.30;91.10;;;;;;5076379;28;20511;-67
2021/05/26 04:28:43;;;;;;;4.10;1.70;;;11.30;90.80;;;;;;5076563;28;20444;-68
2021/05/26 04:31:11;;;;;;;4.67;1.77;;;11.40;90.70;;;;;;5076500;28;20515;-67
2021/05/26 04:33:37;;;;;;;3.47;2.03;;;11.40;90.70;;;;;;5076347;28;20452;-68
2021/05/26 04:36:05;;;;;;;4.67;1.80;;;11.40;90.30;;;;;;5076447;28;21039;-68
2021/05/26 04:38:31;;;;;;;2.07;1.63;;;11.40;90.50;;;;;;5075991;28;20910;-68
2021/05/26 04:40:59;;;;;;;4.10;1.97;;;11.50;90.50;;;;;;5076238;28;20457;-68
2021/05/26 04:43:25;;;;;;;2.60;1.87;;;11.50;90.30;;;;;;5076145;28;20444;-68
2021/05/26 04:45:52;;;;;;;2.40;1.40;;;11.60;90.30;;;;;;5075639;28;21063;-68
2021/05/26 04:48:19;;;;;;;8.40;2.47;;;11.60;90.20;;;;;;5076072;28;20444;-68
2021/05/26 04:50:45;;;;;;;2.80;1.60;;;11.70;90.00;;;;;;5076104;28;20452;-68
2021/05/26 04:53:12;;;;;;;1.40;1.10;;;11.80;89.90;;;;;;5075727;28;20816;-68
2021/05/26 04:55:38;;;;;;;2.53;1.43;;;11.80;89.40;;;;;;5076166;28;20468;-68
2021/05/26 04:58:05;;;;;;;1.60;1.50;;;11.80;89.20;;;;;;5075797;28;20943;-68
2021/05/26 05:00:32;;;;;;;3.70;1.47;;;11.80;88.30;;;;;;5076059;28;20502;-68
2021/05/26 05:02:58;;;;;;;4.83;1.30;;;11.90;88.80;;;;;;5075831;28;20452;-68
2021/05/26 05:05:29;;;;;;;2.67;1.20;;;11.90;88.70;;;;;;5075737;28;20488;-68
2021/05/26 05:07:56;;;;;;;2.53;1.30;;;11.90;88.10;;;;;;5075105;28;20425;-68
2021/05/26 05:10:22;;;;;;;2.00;1.20;;;11.90;88.10;;;;;;5075632;28;20451;-67
2021/05/26 05:12:48;;;;;;;2.97;1.17;;;12.00;87.80;;;;;;5075757;28;20439;-68
2021/05/26 05:15:15;;;;;;;3.27;1.27;;;12.10;87.30;;;;;;5075412;28;20452;-68
2021/05/26 05:17:41;;;;;;;2.37;1.40;;;12.10;87.40;;;;;;5075639;28;20483;-68
2021/05/26 05:20:08;;;;;;;2.57;1.20;;;12.10;87.40;;;;;;5075532;28;20452;-68
2021/05/26 05:22:35;;;;;;;1.80;1.10;;;12.20;87.40;;;;;;5075487;28;20429;-68
2021/05/26 05:25:01;;;;;;;2.37;0.67;;;12.30;87.30;;;;;;5075291;28;20491;-69
2021/05/26 05:27:28;;;;;;;2.20;1.40;;;12.30;86.70;;;;;;5075390;28;20445;-68
2021/05/26 05:29:54;;;;;;;1.93;1.00;;;12.40;86.40;;;;;;5075386;28;20927;-68
2021/05/26 05:32:20;;;;;;;1.97;1.03;;;12.50;86.30;;;;;;5075283;28;20481;-68
2021/05/26 05:34:47;;;;;;;1.70;1.33;;;12.50;86.00;;;;;;5074927;28;20935;-68
2021/05/26 05:37:13;;;;;;;2.97;1.70;;;12.60;85.60;;;;;;5075187;28;20464;-68
2021/05/26 05:39:40;;;;;;;3.83;1.00;;;12.60;84.70;;;;;;5075148;28;20451;-68
2021/05/26 05:42:06;;;;;;;2.97;1.40;;;12.70;84.20;;;;;;5075116;28;20455;-68
2021/05/26 05:44:33;;;;;;;2.00;1.23;;;12.70;84.10;;;;;;5075006;28;20532;-68
2021/05/26 05:46:59;;;;;;;1.17;1.07;;;12.80;84.30;;;;;;5074969;28;20475;-68
2021/05/26 05:49:25;;;;;;;1.70;0.90;;;12.80;84.20;;;;;;5075004;28;20444;-68
2021/05/26 05:51:51;;;;;;;1.77;1.03;;;12.90;84.30;;;;;;5074982;28;20450;-68
2021/05/26 05:54:18;;;;;;;7.70;1.30;;;13.00;84.40;;;;;;5074568;28;21004;-68
2021/05/26 05:56:45;;;;;;;1.97;1.23;;;13.00;84.10;;;;;;5074749;28;20547;-68
2021/05/26 05:59:11;;;;;;;3.33;1.00;;;13.10;83.80;;;;;;5074752;28;20535;-68
2021/05/26 06:01:37;;;;;;;4.00;1.50;;;13.10;82.90;;;;;;5074492;28;20433;-68
2021/05/26 06:04:04;;;;;;;2.27;1.10;;;13.10;82.70;;;;;;5074640;28;20518;-68
2021/05/26 06:06:30;;;;;;;15.83;1.43;;;13.10;82.40;;;;;;5074141;28;20488;-68
2021/05/26 06:08:57;;;;;;;2.13;1.80;;;13.10;82.40;;;;;;5074638;28;20455;-68
2021/05/26 06:11:23;;;;;;;2.83;1.00;;;13.10;82.90;;;;;;5074525;28;20451;-68
2021/05/26 06:13:50;;;;;;;3.40;1.20;;;13.10;83.70;;;;;;5074464;28;20486;-68
2021/05/26 06:16:17;;;;;;;2.37;1.07;;;13.10;83.10;;;;;;5074072;28;20480;-68
2021/05/26 06:18:43;;;;;;;2.30;1.13;;;13.10;82.00;;;;;;5074429;28;20429;-68
2021/05/26 06:21:09;;;;;;;1.10;1.00;;;13.20;82.00;;;;;;5073176;28;20899;-68
2021/05/26 06:23:36;;;;;;;1.10;0.87;;;13.10;82.10;;;;;;5074241;28;20448;-68
2021/05/26 06:26:02;;;;;;;2.10;1.00;;;13.20;82.60;;;;;;5074098;28;20852;-68
2021/05/26 06:28:29;;;;;;;2.97;1.10;;;13.10;81.10;;;;;;5074176;28;20444;-68
2021/05/26 06:30:57;;;;;;;1.87;1.13;;;13.20;82.10;;;;;;5074167;28;20437;-68
2021/05/26 06:33:23;;;;;;;2.37;0.87;;;13.20;82.10;;;;;;5074120;28;20477;-69
2021/05/26 06:35:50;;;;;;;2.13;0.77;;;13.30;82.70;;;;;;5073979;28;20457;-69
2021/05/26 06:38:17;;;;;;;2.83;1.00;;;13.30;82.10;;;;;;5073701;28;20497;-69
2021/05/26 06:40:43;;;;;;;1.37;0.67;;;13.30;82.40;;;;;;5073940;28;20425;-69
2021/05/26 06:43:09;;;;;;;1.00;0.80;;;13.30;82.00;;;;;;5073944;28;20447;-69
2021/05/26 06:45:36;;;;;;;1.97;0.90;;;13.40;81.20;;;;;;5074008;28;20818;-69
2021/05/26 06:48:03;;;;;;;1.23;1.10;;;13.30;80.50;;;;;;5073924;28;20491;-69
2021/05/26 06:50:29;;;;;;;1.83;1.00;;;13.40;80.00;;;;;;5073845;28;20456;-69
2021/05/26 06:52:56;;;;;;;1.00;1.00;;;13.40;80.40;;;;;;5073430;28;20966;-69
2021/05/26 06:55:22;;;;;;;0.80;0.80;;;13.50;80.30;;;;;;5073694;28;20469;-69
2021/05/26 06:57:48;;;;;;;2.10;0.90;;;13.30;80.10;;;;;;5073666;28;20452;-69
2021/05/26 07:00:15;;;;;;;1.00;0.80;;;13.40;80.50;;;;;;5073433;28;20448;-69
2021/05/26 07:02:42;;;;;;;1.63;0.80;;;13.60;80.90;;;;;;5073679;28;20429;-68
2021/05/26 07:05:11;;;;;;;0.70;0.70;;;13.70;79.40;;;;;;5073499;28;20476;-68
2021/05/26 07:07:37;;;;;;;1.30;0.77;;;13.60;79.10;;;;;;5073651;28;20482;-68
2021/05/26 07:10:05;;;;;;;1.20;0.77;;;13.60;78.90;;;;;;5073629;28;20428;-68
2021/05/26 07:12:31;;;;;;;1.03;0.80;;;13.60;79.50;;;;;;5073268;28;20821;-68
2021/05/26 07:14:58;;;;;;;1.60;0.93;;;13.70;81.00;;;;;;5073555;28;20448;-68
2021/05/26 07:17:24;;;;;;;1.97;0.90;;;13.90;79.00;;;;;;5073048;28;20510;-68
2021/05/26 07:19:50;;;;;;;0.70;0.60;;;13.90;77.70;;;;;;5074337;28;20445;-68
2021/05/26 07:22:17;;;;;;;1.37;0.73;;;14.00;77.80;;;;;;5073458;28;20448;-68
2021/05/26 07:24:43;;;;;;;1.13;0.70;;;14.10;77.30;;;;;;5073368;28;20452;-68
2021/05/26 07:27:10;;;;;;;1.77;0.73;;;14.20;76.90;;;;;;5073371;28;20460;-68
2021/05/26 07:29:36;;;;;;;0.90;0.90;;;14.30;76.90;;;;;;5073081;28;20925;-68
2021/05/26 07:32:03;;;;;;;1.33;0.93;;;14.50;77.50;;;;;;5076914;28;20444;-68
2021/05/26 07:34:29;;;;;;;1.20;0.80;;;14.60;76.00;;;;;;5080027;28;20475;-68
2021/05/26 07:36:55;;;;;;;1.87;0.87;;;14.60;74.80;;;;;;5079956;28;20456;-68
2021/05/26 07:39:24;;;;;;;1.20;0.80;;;14.60;73.70;;;;;;5079659;28;20452;-68
2021/05/26 07:41:50;;;;;;;0.90;0.90;;;14.60;74.20;;;;;;5079909;28;20444;-68
2021/05/26 07:44:16;;;;;;;1.00;0.90;;;14.60;75.20;;;;;;5079921;28;20440;-68
2021/05/26 07:46:42;;;;;;;1.30;1.00;;;14.50;75.00;;;;;;5079788;28;20495;-68
2021/05/26 07:49:10;;;;;;;1.70;0.80;;;14.50;75.30;;;;;;5079962;28;20448;-68
2021/05/26 07:51:41;;;;;;;1.00;1.00;;;14.70;75.50;;;;;;5079929;28;20443;-68
2021/05/26 07:54:07;;;;;;;2.23;0.87;;;15.00;75.30;;;;;;5079883;28;20429;-68
2021/05/26 07:56:35;;;;;;;1.17;0.90;;;15.30;72.40;;;;;;5079479;28;20459;-68
2021/05/26 07:59:02;;;;;;;2.00;1.30;;;15.50;70.10;;;;;;5079814;28;20443;-68
2021/05/26 08:01:28;;;;;;;1.43;0.80;;;15.50;68.70;;;;;;5079836;28;20800;-69
2021/05/26 08:03:55;;;;;;;1.43;0.90;;;15.60;69.00;;;;;;5079812;28;20461;-68
2021/05/26 08:06:21;;;;;;;2.20;0.90;;;15.50;68.20;;;;;;5079603;28;20496;-68
2021/05/26 08:08:47;;;;;;;1.30;1.07;;;15.30;67.90;;;;;;5079792;28;20771;-68
2021/05/26 08:11:13;;;;;;;0.80;0.80;;;15.10;69.10;;;;;;5079713;28;20433;-69
2021/05/26 08:13:40;;;;;;;1.23;0.70;;;15.00;70.30;;;;;;5079392;28;20515;-69
2021/05/26 08:16:09;;;;;;;0.70;0.70;;;15.00;70.80;;;;;;5079173;28;20479;-68
2021/05/26 08:18:35;;;;;;;0.70;0.60;;;15.00;71.70;;;;;;5079633;28;20530;-68
2021/05/26 08:21:01;;;;;;;0.87;0.87;;;15.10;69.80;;;;;;5079595;28;20513;-68
2021/05/26 08:23:27;;;;;;;1.80;0.77;;;15.40;71.10;;;;;;5079266;28;21003;-68
2021/05/26 08:25:54;;;;;;;1.13;0.60;;;15.80;70.00;;;;;;5079377;28;20597;-69
2021/05/26 08:28:20;;;;;;;1.53;0.80;;;16.00;65.20;;;;;;5079418;28;20456;-69
2021/05/26 08:30:47;;;;;;;1.13;0.60;;;16.30;65.70;;;;;;5079572;28;20429;-69
2021/05/26 08:33:14;;;;;;;0.70;0.60;;;16.50;66.00;;;;;;5079367;28;20467;-69
2021/05/26 08:35:41;;;;;;;1.67;0.80;;;16.70;65.00;;;;;;5079445;28;20461;-69
2021/05/26 08:38:07;;;;;;;5.50;1.20;;;16.80;64.30;;;;;;5079610;28;20431;-68
2021/05/26 08:40:33;;;;;;;2.40;0.80;;;16.70;62.60;;;;;;5079449;28;20448;-68
2021/05/26 08:43:00;;;;;;;1.70;0.67;;;16.60;61.90;;;;;;5077395;28;20491;-68
2021/05/26 08:45:26;;;;;;;3.17;0.70;;;16.50;61.50;;;;;;5076235;28;20538;-68
2021/05/26 08:47:54;;;;;;;0.70;0.47;;;16.30;62.60;;;;;;5076330;28;20833;-68
2021/05/26 08:50:20;;;;;;;0.97;0.83;;;16.30;63.90;;;;;;5076329;28;20432;-68
2021/05/26 08:52:47;;;;;;;1.87;0.63;;;16.30;63.20;;;;;;5076049;28;20448;-68
2021/05/26 08:55:14;;;;;;;2.40;0.70;;;16.20;63.00;;;;;;5076035;28;20489;-68
2021/05/26 08:57:41;;;;;;;2.13;0.50;;;16.00;64.90;;;;;;5076219;28;20444;-68
2021/05/26 09:00:08;;;;;;;1.17;0.70;;;15.90;64.50;;;;;;5075755;28;20532;-68
2021/05/26 09:02:35;;;;;;;0.90;0.73;;;15.90;65.80;;;;;;5075705;28;20451;-68
2021/05/26 09:05:02;;;;;;;0.80;0.50;;;15.90;66.00;;;;;;5075987;28;20483;-68
2021/05/26 09:07:32;;;;;;;0.73;0.60;;;15.90;65.80;;;;;;5075598;28;20818;-69
2021/05/26 09:10:00;;;;;;;0.90;0.50;;;15.90;65.50;;;;;;5075654;28;20467;-69
2021/05/26 09:12:29;;;;;;;1.83;0.73;;;15.70;65.10;;;;;;5075518;28;20451;-69
2021/05/26 09:14:56;;;;;;;1.40;0.77;;;15.50;66.50;;;;;;5075526;28;20451;-69
2021/05/26 09:17:22;;;;;;;0.83;0.83;;;15.60;67.20;;;;;;5075036;28;20496;-69
2021/05/26 09:19:48;;;;;;;0.90;0.90;;;15.80;67.10;;;;;;5075436;28;20444;-69
2021/05/26 09:22:18;;;;;;;3.97;1.80;;;16.00;65.60;;;;;;5075169;28;20934;-69
2021/05/26 09:24:44;;;;;;;1.37;0.97;;;16.30;65.50;;;;;;5075152;28;20429;-69
2021/05/26 09:27:12;;;;;;;0.87;0.57;;;16.50;63.00;;;;;;5075589;28;20472;-69
2021/05/26 09:29:41;;;;;;;0.70;0.70;;;16.70;63.90;;;;;;5075497;28;20429;-69
2021/05/26 09:32:11;;;;;;;1.60;1.10;;;16.60;63.10;;;;;;5074968;28;20483;-69
2021/05/26 09:34:39;;;;;;;2.07;0.93;;;16.60;63.20;;;;;;5075283;28;20440;-69
2021/05/26 09:37:06;;;;;;;1.33;0.70;;;16.40;60.90;;;;;;5075072;28;20461;-69
2021/05/26 09:39:47;;;;;;;0.70;0.70;;;16.10;63.40;;;;;;5075131;28;20439;-69
2021/05/26 09:42:28;;;;;;;1.30;0.90;;;15.80;64.90;;;;;;5075098;28;20452;-69
2021/05/26 09:45:11;;;;;;;1.83;0.87;;;15.70;67.10;;;;;;5074751;28;20791;-69
2021/05/26 09:47:39;;;;;;;2.00;1.00;;;15.50;66.60;;;;;;5073939;28;20544;-69
2021/05/26 09:50:19;;;;;;;1.13;1.00;;;15.60;67.80;;;;;;5075148;28;20444;-69
2021/05/26 09:53:04;;;;;;;1.57;1.37;;;15.90;67.20;;;;;;5074713;28;20483;-69
2021/05/26 09:55:33;;;;;;;0.80;0.80;;;16.10;66.10;;;;;;5074715;28;20464;-69
2021/05/26 09:58:00;;;;;;;3.00;1.80;;;16.60;66.30;;;;;;5074889;28;20425;-69
2021/05/26 10:00:28;;;;;;;0.60;0.60;;;17.00;64.60;;;;;;5074869;28;20525;-69
2021/05/26 10:02:54;;;;;;;1.80;1.00;;;17.10;62.00;;;;;;5074485;28;20428;-69
2021/05/26 10:05:22;;;;;;;1.67;0.90;;;17.00;62.50;;;;;;5074305;28;20985;-69
2021/05/26 10:07:52;;;;;;;3.90;0.97;;;16.80;62.50;;;;;;5074738;28;20440;-69
2021/05/26 10:10:20;;;;;;;1.63;0.70;;;16.70;63.90;;;;;;5074371;28;20902;-69
2021/05/26 10:12:53;;;;;;;1.20;0.67;;;16.70;64.50;;;;;;5074657;28;20836;-69
2021/05/26 10:15:38;;;;;;;1.57;0.80;;;16.60;63.90;;;;;;5074305;28;20437;-69
2021/05/26 10:18:05;;;;;;;0.77;0.77;;;16.90;65.80;;;;;;5072421;28;20510;-70
2021/05/26 10:20:33;;;;;;;1.03;0.83;;;17.40;64.50;;;;;;5074378;28;20429;-69
2021/05/26 10:23:02;;;;;;;0.77;0.77;;;18.00;61.80;;;;;;5074427;28;20440;-71
2021/05/26 10:25:29;;;;;;;1.17;0.80;;;18.70;61.50;;;;;;5074239;28;20480;-69
2021/05/26 10:27:57;;;;;;;1.07;0.60;;;19.10;58.50;;;;;;5074365;28;20405;-69
2021/05/26 10:30:26;;;;;;;0.97;0.70;;;19.30;57.70;;;;;;5074324;28;20456;-69
2021/05/26 10:32:55;;;;;;;1.13;0.77;;;19.60;56.30;;;;;;5074175;28;20538;-69
2021/05/26 10:35:23;;;;;;;1.13;0.60;;;20.10;57.00;;;;;;5074106;28;20443;-70
2021/05/26 10:37:58;;;;;;;1.13;0.80;;;20.70;55.20;;;;;;5074057;28;20444;-70
2021/05/26 10:40:46;;;;;;;0.90;0.90;;;21.30;53.90;;;;;;5074052;28;20448;-69
2021/05/26 10:43:27;;;;;;;0.60;0.60;;;21.30;52.70;;;;;;5073695;28;20440;-69
2021/05/26 10:45:55;;;;;;;0.63;0.50;;;21.90;52.10;;;;;;5073647;28;20854;-70
2021/05/26 10:49:01;;;;;;;0.60;0.57;;;22.40;51.30;;;;;;5073552;28;20793;-70
2021/05/26 10:52:04;;;;;;;1.03;0.53;;;22.70;47.30;;;;;;5073919;28;20526;-70
2021/05/26 10:54:58;;;;;;;0.63;0.60;;;22.30;48.30;;;;;;5074003;28;20425;-70
2021/05/26 10:57:25;;;;;;;1.43;0.40;;;21.50;47.80;;;;;;5073778;28;20525;-70
2021/05/26 11:00:30;;;;;;;0.60;0.50;;;20.60;49.10;;;;;;5073721;28;20445;-70
2021/05/26 11:03:39;;;;;;;0.60;0.50;;;19.70;52.30;;;;;;5074579;28;20790;-70
2021/05/26 11:06:26;;;;;;;1.33;0.50;;;18.90;54.70;;;;;;5072825;28;20568;-70
2021/05/26 11:08:55;;;;;;;1.13;0.80;;;18.40;56.00;;;;;;5073237;28;20448;-70
2021/05/26 11:11:47;;;;;;;1.77;1.10;;;17.90;57.20;;;;;;5073537;28;20436;-70
2021/05/26 11:14:24;;;;;;;2.50;1.30;;;17.40;58.70;;;;;;5073358;28;20455;-69
2021/05/26 11:17:21;;;;;;;1.10;1.00;;;17.20;60.60;;;;;;5073263;28;20484;-69
2021/05/26 11:19:48;;;;;;;2.63;1.30;;;16.90;61.10;;;;;;5073589;28;20502;-69
2021/05/26 11:22:15;;;;;;;1.43;1.10;;;17.00;62.00;;;;;;5073589;28;20436;-69
2021/05/26 11:24:43;;;;;;;2.47;1.20;;;17.10;62.30;;;;;;5074406;28;20436;-69
2021/05/26 11:27:18;;;;;;;2.17;0.80;;;17.20;59.60;;;;;;5073078;28;20484;-69
2021/05/26 11:29:48;;;;;;;0.77;0.77;;;17.40;60.90;;;;;;5073132;28;20801;-69
2021/05/26 11:32:16;;;;;;;1.00;0.90;;;17.30;59.00;;;;;;5073422;28;20462;-69
2021/05/26 11:34:44;;;;;;;3.60;0.80;;;17.40;60.50;;;;;;5073478;28;20440;-69
2021/05/26 11:37:12;;;;;;;0.93;0.90;;;17.60;60.50;;;;;;5073047;28;20586;-69
2021/05/26 11:39:39;;;;;;;0.90;0.90;;;17.80;59.00;;;;;;5073396;28;20440;-69
2021/05/26 11:42:13;;;;;;;1.53;1.20;;;18.00;59.50;;;;;;5073327;28;20437;-69
2021/05/26 11:44:41;;;;;;;4.77;1.27;;;18.00;58.40;;;;;;5073301;28;20454;-69
2021/05/26 11:47:08;;;;;;;1.83;1.20;;;17.90;59.80;;;;;;5074018;28;20485;-69
2021/05/26 11:49:37;;;;;;;4.00;1.30;;;17.80;59.00;;;;;;5073331;28;20483;-69
2021/05/26 11:52:06;;;;;;;1.10;1.00;;;17.60;59.10;;;;;;5073210;28;20539;-69
2021/05/26 11:54:33;;;;;;;1.43;1.17;;;17.40;59.50;;;;;;5073804;28;20452;-69
2021/05/26 11:57:02;;;;;;;1.00;1.00;;;17.30;61.30;;;;;;5073202;28;20464;-69
2021/05/26 11:59:29;;;;;;;1.10;1.07;;;17.40;61.60;;;;;;5073233;28;20435;-69
2021/05/26 12:01:55;;;;;;;1.53;1.43;;;17.30;61.30;;;;;;5072862;28;20899;-69
2021/05/26 12:04:22;;;;;;;1.90;1.57;;;17.40;60.10;;;;;;5073168;28;20437;-69
2021/05/26 12:06:48;;;;;;;1.07;1.07;;;17.40;61.10;;;;;;5072641;28;20998;-69
2021/05/26 12:09:29;;;;;;;2.10;1.23;;;17.40;60.30;;;;;;5073075;28;20444;-69
2021/05/26 12:11:56;;;;;;;3.37;1.47;;;17.50;59.40;;;;;;5072750;28;20445;-69
2021/05/26 12:14:30;;;;;;;2.80;1.47;;;17.60;59.30;;;;;;5073045;28;20482;-69
2021/05/26 12:16:59;;;;;;;1.40;1.20;;;17.80;57.20;;;;;;5072548;28;20487;-69
2021/05/26 12:19:28;;;;;;;2.97;1.63;;;17.90;57.50;;;;;;5074953;28;20903;-69
2021/05/26 12:22:10;;;;;;;1.87;1.57;;;17.90;58.30;;;;;;5076715;28;20789;-69
2021/05/26 12:24:54;;;;;;;3.03;1.63;;;17.80;58.70;;;;;;5076377;28;20452;-69
2021/05/26 12:27:36;;;;;;;2.93;1.47;;;18.00;58.70;;;;;;5076494;28;20895;-69
2021/05/26 12:30:17;;;;;;;3.07;1.73;;;19.10;57.00;;;;;;5076435;28;20838;-69
2021/05/26 12:32:44;;;;;;;2.10;1.50;;;20.10;52.80;;;;;;5076789;28;20429;-69
2021/05/26 12:35:19;;;;;;;3.73;1.80;;;20.50;52.40;;;;;;5076719;28;20429;-70
2021/05/26 12:37:47;;;;;;;1.40;1.30;;;20.70;52.00;;;;;;5076462;28;20429;-70
2021/05/26 12:40:29;;;;;;;1.60;1.50;;;20.80;51.50;;;;;;5076368;28;20441;-70
2021/05/26 12:42:57;;;;;;;2.43;1.40;;;21.00;52.60;;;;;;5076310;28;20432;-69
2021/05/26 12:45:26;;;;;;;1.30;1.20;;;21.20;52.00;;;;;;5076028;28;20484;-70
2021/05/26 12:47:54;;;;;;;2.20;1.50;;;21.80;48.70;;;;;;5076239;28;20503;-69
2021/05/26 12:50:24;;;;;;;3.53;1.30;;;22.40;47.00;;;;;;5076256;28;20440;-69
2021/05/26 12:52:52;;;;;;;1.33;1.20;;;22.50;46.20;;;;;;5076117;28;20488;-69
2021/05/26 12:55:23;;;;;;;1.87;1.60;;;23.10;43.60;;;;;;5076584;28;20449;-70